Aeroporto :
LOGIN :

Iscrizione | Disclaimer

   EN    FR    IT 

 










Sommario :    VFR   VFR Marginale   IFR   IFR Intensivo   IFR Molto Intensivo
Visibilità : 
Base nubi : 
>= 8 km
>= 3000ft
5 / 8 km
1000 / 3000 ft
1500m / 5 km
500 / 1000 ft
800 / 1500m
200 / 500 ft
< 800m
< 200 ft
Simboli :   Temporali  Nebbia  Neve Forte  Precipitazioni Forti  Vento > 20 kt
SIGMETs :   Varie  Temporali  Ghiacco  Turbolenza  Onda orograficha  Ceneri Vulcaniche







- Altitudine del aeroporto : 1791 ft
- Codice IATA : AOT


LIMW - Aosta

ULTIMO METAR :
  • 211050Z AUTO 09006KT 040V130 9999 NCD 30/17 Q1020

METARs OBSOLETI :
  • 211020Z AUTO VRB03KT 9999 NCD 30/16 Q1021
  • 210950Z AUTO 10004KT 9999 NCD 29/16 Q1021
  • 210920Z AUTO VRB02KT 9999 NCD 28/17 Q1021
  • 210820Z AUTO VRB02KT 9999 NCD 26/17 Q1022
  • 210750Z AUTO VRB01KT 9999 NCD 25/16 Q1022

TAF TAF LIMW
Valido dal 21 a 09 ore il 21 a 18 ore UTC


210800Z 2109/2118 10018KT CAVOK
Nessun NOTAM noto per questo aeroporto.



MetMap, La meteo Aeronautica in un colpo d'occhio ! - Copyright ORBIFLY Dicembre 2007 - Disclaimer

ORBIFLY MET'MAP TEAM :

Programmazione e sviluppo : Alexandra Zaïnal
Concezione e sviluppo : Baudouin d'Aumeries
Co-Programmazione e sviluppo : Marc-Olivier Méhu
Supporto tecnico e logistico : Manuel Goepfert
Aiuto per la traduzione : Arnaldo La Scala

Contatto : metmap@orbifly.com




FONTI E CREDITI :

   NOAA